Time;durP1;ratioP1;P1;durP2;ratioP2;P2;SDS_P1;SDS_P2;PMS_P1;PMS_P2;Temp;Humidity;BMP_temperature;BMP_pressure;BME280_temperature;BME280_humidity;BME280_pressure;Samples;Min_cycle;Max_cycle;Signal;HPM_P1;HPM_P2
2021/03/31 00:00:01;;;;;;;18.20;5.25;;;10.30;51.20;;;;;;4993422;28;20045;-78
2021/03/31 00:02:26;;;;;;;13.55;5.35;;;10.20;52.00;;;;;;4998142;28;20042;-78
2021/03/31 00:04:52;;;;;;;9.50;4.70;;;10.20;52.30;;;;;;4998374;28;20096;-77
2021/03/31 00:07:18;;;;;;;16.02;4.75;;;10.10;52.70;;;;;;4992234;28;20070;-76
2021/03/31 00:09:43;;;;;;;12.00;5.53;;;10.10;52.10;;;;;;4995187;28;20038;-78
2021/03/31 00:12:09;;;;;;;17.85;5.32;;;10.10;53.10;;;;;;4999116;28;20081;-78
2021/03/31 00:14:36;;;;;;;16.60;4.93;;;10.10;53.20;;;;;;5000655;28;20555;-78
2021/03/31 00:17:02;;;;;;;13.57;5.60;;;10.00;53.40;;;;;;4994833;28;20473;-79
2021/03/31 00:19:27;;;;;;;12.32;5.13;;;10.00;53.80;;;;;;4996086;28;20200;-78
2021/03/31 00:21:53;;;;;;;10.32;5.28;;;9.90;55.60;;;;;;4994617;28;20124;-78
2021/03/31 00:24:19;;;;;;;14.13;4.63;;;9.90;56.10;;;;;;4995149;28;20064;-78
2021/03/31 00:26:44;;;;;;;9.80;4.47;;;9.90;56.90;;;;;;4994028;28;20089;-78
2021/03/31 00:29:10;;;;;;;11.52;5.35;;;9.80;56.80;;;;;;4992714;28;20041;-78
2021/03/31 00:31:35;;;;;;;11.60;4.97;;;9.80;58.30;;;;;;4991744;28;20125;-78
2021/03/31 00:34:01;;;;;;;14.77;5.22;;;9.80;58.10;;;;;;4991455;28;20110;-77
2021/03/31 00:36:27;;;;;;;19.27;6.25;;;9.80;57.90;;;;;;4992529;28;20149;-77
2021/03/31 00:38:52;;;;;;;18.45;5.78;;;9.80;59.80;;;;;;4993626;28;20088;-77
2021/03/31 00:41:18;;;;;;;14.55;4.80;;;9.70;59.70;;;;;;4990419;28;20038;-78
2021/03/31 00:43:43;;;;;;;14.40;5.03;;;9.60;59.70;;;;;;4991190;28;20053;-79
2021/03/31 00:46:09;;;;;;;15.15;5.50;;;9.60;60.10;;;;;;4990913;28;20038;-78
2021/03/31 00:48:34;;;;;;;18.10;5.40;;;9.60;60.80;;;;;;4990917;28;20132;-80
2021/03/31 00:51:01;;;;;;;15.95;4.95;;;9.60;62.30;;;;;;4990309;28;20118;-78
2021/03/31 00:53:31;;;;;;;20.15;5.65;;;9.60;62.30;;;;;;4991967;28;20042;-79
2021/03/31 00:55:57;;;;;;;22.55;5.45;;;9.50;62.50;;;;;;4990992;28;20042;-79
2021/03/31 00:58:22;;;;;;;17.90;5.60;;;9.50;63.20;;;;;;4993376;28;20512;-80
2021/03/31 01:00:48;;;;;;;16.73;5.43;;;9.50;64.20;;;;;;5000630;28;20073;-79
2021/03/31 01:03:14;;;;;;;14.90;5.82;;;9.50;64.30;;;;;;5007367;28;20038;-77
2021/03/31 01:05:39;;;;;;;17.33;5.72;;;9.50;64.00;;;;;;4990909;28;20053;-79
2021/03/31 01:08:05;;;;;;;11.95;4.90;;;9.50;64.10;;;;;;4992408;28;20034;-79
2021/03/31 01:10:40;;;;;;;22.52;5.50;;;9.50;64.50;;;;;;4991984;28;20727;-78
2021/03/31 01:13:44;;;;;;;16.55;4.85;;;9.40;64.70;;;;;;4992905;28;20065;-79
2021/03/31 01:16:34;;;;;;;28.40;5.63;;;9.40;64.90;;;;;;4991110;28;20756;-79
2021/03/31 01:19:24;;;;;;;19.00;5.50;;;9.30;65.20;;;;;;4996545;28;20054;-77
2021/03/31 01:22:02;;;;;;;13.95;5.05;;;9.30;65.10;;;;;;4999193;28;20041;-77
2021/03/31 01:24:30;;;;;;;16.10;5.68;;;9.30;66.00;;;;;;5000174;28;20042;-78
2021/03/31 01:27:05;;;;;;;14.57;5.20;;;9.30;65.60;;;;;;4991251;28;20042;-78
2021/03/31 01:30:04;;;;;;;12.73;4.78;;;9.30;65.60;;;;;;4994489;28;20038;-78
2021/03/31 01:32:56;;;;;;;22.55;5.35;;;9.20;65.90;;;;;;5014674;28;20080;-78
2021/03/31 01:35:24;;;;;;;11.60;4.63;;;9.20;66.10;;;;;;4994872;28;20042;-79
2021/03/31 01:37:52;;;;;;;17.00;5.45;;;9.10;67.10;;;;;;4998814;28;20157;-78
2021/03/31 01:40:21;;;;;;;15.48;4.82;;;9.10;67.60;;;;;;5000462;28;20531;-77
2021/03/31 01:43:00;;;;;;;14.50;5.22;;;9.10;67.50;;;;;;5002586;28;20126;-78
2021/03/31 01:45:29;;;;;;;12.32;4.97;;;9.10;67.90;;;;;;5000201;28;22207;-77
2021/03/31 01:47:58;;;;;;;17.52;6.03;;;9.10;68.20;;;;;;5017966;28;20090;-75
2021/03/31 01:50:25;;;;;;;21.08;5.10;;;9.00;68.80;;;;;;5004458;28;20037;-77
2021/03/31 01:52:50;;;;;;;13.15;4.93;;;9.00;69.30;;;;;;4997511;28;20030;-77
2021/03/31 01:55:17;;;;;;;19.67;5.35;;;9.00;68.90;;;;;;4998048;28;20353;-77
2021/03/31 01:57:44;;;;;;;20.67;5.90;;;8.90;69.10;;;;;;4997123;28;20038;-78
2021/03/31 02:00:14;;;;;;;16.27;5.32;;;8.90;70.00;;;;;;4996182;28;20041;-78
2021/03/31 02:02:43;;;;;;;16.70;4.97;;;8.90;70.30;;;;;;4997875;28;20568;-77
2021/03/31 02:05:10;;;;;;;12.90;4.90;;;8.90;70.40;;;;;;5000885;28;20092;-78
2021/03/31 02:07:40;;;;;;;16.58;5.20;;;8.90;70.60;;;;;;4994010;28;20611;-78
2021/03/31 02:10:10;;;;;;;11.68;4.88;;;8.90;70.40;;;;;;4993416;28;20061;-77
2021/03/31 02:12:36;;;;;;;18.33;6.07;;;8.90;70.70;;;;;;4997925;28;20064;-76
2021/03/31 02:15:02;;;;;;;22.13;7.00;;;8.80;70.60;;;;;;5006690;28;20504;-75
2021/03/31 02:17:29;;;;;;;16.02;5.35;;;8.80;71.40;;;;;;5006184;28;20038;-75
2021/03/31 02:19:56;;;;;;;13.52;5.63;;;8.90;72.00;;;;;;5006312;28;20085;-75
2021/03/31 02:22:24;;;;;;;16.98;5.20;;;8.80;72.30;;;;;;5005938;28;20060;-75
2021/03/31 02:24:50;;;;;;;12.10;5.10;;;8.80;73.00;;;;;;5002864;28;20064;-76
2021/03/31 02:27:16;;;;;;;12.00;5.15;;;8.70;72.90;;;;;;5000022;28;20133;-76
2021/03/31 02:29:45;;;;;;;17.63;5.10;;;8.70;73.30;;;;;;5004468;28;20129;-76
2021/03/31 02:32:13;;;;;;;14.27;5.50;;;8.60;73.60;;;;;;5008479;28;20031;-76
2021/03/31 02:34:40;;;;;;;11.52;4.88;;;8.60;73.60;;;;;;5001801;28;20089;-77
2021/03/31 02:37:07;;;;;;;21.90;5.68;;;8.60;73.90;;;;;;5016302;28;20041;-76
2021/03/31 02:39:37;;;;;;;12.05;5.15;;;8.60;75.80;;;;;;4995919;28;20053;-77
2021/03/31 02:42:06;;;;;;;15.35;6.82;;;8.50;74.90;;;;;;5000323;28;20033;-77
2021/03/31 02:44:32;;;;;;;16.45;5.25;;;8.50;75.20;;;;;;5005947;28;20156;-77
2021/03/31 02:47:02;;;;;;;15.85;5.20;;;8.40;75.40;;;;;;5000063;28;20528;-78
2021/03/31 02:49:30;;;;;;;10.75;4.82;;;8.40;76.00;;;;;;5000382;28;20049;-77
2021/03/31 02:51:57;;;;;;;24.23;6.00;;;8.40;76.40;;;;;;5000187;28;20034;-76
2021/03/31 02:54:24;;;;;;;15.18;5.55;;;8.40;76.70;;;;;;5001754;28;20065;-77
2021/03/31 02:56:49;;;;;;;16.50;4.78;;;8.40;77.40;;;;;;4997098;28;20635;-76
2021/03/31 02:59:16;;;;;;;15.68;5.55;;;8.40;77.40;;;;;;5005263;28;20030;-75
2021/03/31 03:01:43;;;;;;;14.77;5.22;;;8.40;77.90;;;;;;4998125;28;20105;-75
2021/03/31 03:04:09;;;;;;;16.13;5.38;;;8.30;78.00;;;;;;4997515;28;20603;-76
2021/03/31 03:06:35;;;;;;;10.95;5.35;;;8.30;80.20;;;;;;4995036;28;20046;-77
2021/03/31 03:09:04;;;;;;;9.45;4.55;;;8.30;79.40;;;;;;4992899;28;20030;-76
2021/03/31 03:11:30;;;;;;;20.02;5.78;;;8.30;79.60;;;;;;4995185;28;20030;-75
2021/03/31 03:13:56;;;;;;;15.55;5.68;;;8.30;80.10;;;;;;5001086;28;20026;-77
2021/03/31 03:16:22;;;;;;;10.82;4.57;;;8.20;80.50;;;;;;5006623;28;20042;-75
2021/03/31 03:18:47;;;;;;;15.45;5.10;;;8.20;80.40;;;;;;5004637;28;20160;-76
2021/03/31 03:21:14;;;;;;;13.85;5.03;;;8.10;80.60;;;;;;5003551;28;20030;-77
2021/03/31 03:23:44;;;;;;;16.40;5.32;;;8.20;81.90;;;;;;5002797;28;20037;-78
2021/03/31 03:26:15;;;;;;;16.45;5.95;;;8.10;82.00;;;;;;5002970;28;20052;-78
2021/03/31 03:28:43;;;;;;;18.80;5.75;;;8.20;82.80;;;;;;5004067;28;20038;-76
2021/03/31 03:31:09;;;;;;;13.25;5.60;;;8.10;82.70;;;;;;5003879;28;20057;-77
2021/03/31 03:33:35;;;;;;;12.80;5.97;;;8.10;82.40;;;;;;5000825;28;20496;-76
2021/03/31 03:36:06;;;;;;;13.82;5.40;;;8.10;82.60;;;;;;4998867;28;20761;-77
2021/03/31 03:38:33;;;;;;;16.58;5.43;;;8.10;83.20;;;;;;4996260;28;20054;-77
2021/03/31 03:41:08;;;;;;;14.10;5.53;;;8.00;83.00;;;;;;4997071;28;20049;-77
2021/03/31 03:43:34;;;;;;;14.75;5.63;;;8.00;83.30;;;;;;4994938;28;20029;-79
2021/03/31 03:46:02;;;;;;;14.38;5.35;;;8.00;84.10;;;;;;4990205;28;20097;-75
2021/03/31 03:48:28;;;;;;;15.02;5.32;;;8.00;83.70;;;;;;4999710;28;20140;-77
2021/03/31 03:50:54;;;;;;;15.18;5.07;;;8.00;83.90;;;;;;4997739;28;20608;-78
2021/03/31 03:53:25;;;;;;;16.20;5.38;;;8.00;85.80;;;;;;4998467;28;20065;-78
2021/03/31 03:55:51;;;;;;;15.15;5.32;;;7.90;86.30;;;;;;4999205;28;20042;-77
2021/03/31 03:58:17;;;;;;;16.50;5.72;;;7.90;85.70;;;;;;4998104;28;20100;-77
2021/03/31 04:00:44;;;;;;;19.77;6.38;;;7.90;86.00;;;;;;4996544;28;20088;-78
2021/03/31 04:03:09;;;;;;;15.13;4.95;;;7.80;85.90;;;;;;4997371;28;20328;-77
2021/03/31 04:05:35;;;;;;;21.13;6.20;;;7.80;86.00;;;;;;4998690;28;20041;-76
2021/03/31 04:08:01;;;;;;;11.77;5.10;;;7.80;86.40;;;;;;4997353;28;20042;-75
2021/03/31 04:10:28;;;;;;;16.75;5.70;;;7.70;87.20;;;;;;4994069;28;20146;-78
2021/03/31 04:12:56;;;;;;;14.55;5.60;;;7.80;88.10;;;;;;4995922;28;20046;-78
2021/03/31 04:15:23;;;;;;;15.32;5.47;;;7.80;88.50;;;;;;4992960;28;20149;-78
2021/03/31 04:17:49;;;;;;;10.85;5.30;;;7.80;88.80;;;;;;5001953;28;20567;-78
2021/03/31 04:20:19;;;;;;;16.50;5.72;;;7.80;88.50;;;;;;5000134;28;20048;-78
2021/03/31 04:22:47;;;;;;;14.93;5.57;;;7.80;88.00;;;;;;4994964;28;20164;-78
2021/03/31 04:25:13;;;;;;;11.48;5.63;;;7.70;88.00;;;;;;4996650;28;20026;-78
2021/03/31 04:27:40;;;;;;;20.10;5.65;;;7.80;88.90;;;;;;4995813;28;20981;-78
2021/03/31 04:30:08;;;;;;;14.82;5.63;;;7.70;88.40;;;;;;5000392;28;20516;-78
2021/03/31 04:32:34;;;;;;;12.35;4.90;;;7.70;88.90;;;;;;4998016;28;20088;-76
2021/03/31 04:35:02;;;;;;;15.63;5.28;;;7.70;90.10;;;;;;5002692;28;20428;-77
2021/03/31 04:37:27;;;;;;;12.88;5.60;;;7.70;90.30;;;;;;4996009;28;20049;-78
2021/03/31 04:39:53;;;;;;;15.90;6.07;;;7.70;90.50;;;;;;4996569;28;20957;-78
2021/03/31 04:42:19;;;;;;;13.43;5.47;;;7.70;90.40;;;;;;5000127;28;20026;-78
2021/03/31 04:44:44;;;;;;;14.43;5.63;;;7.70;90.20;;;;;;4997079;28;20444;-77
2021/03/31 04:47:10;;;;;;;21.50;5.88;;;7.70;90.30;;;;;;5000354;28;20724;-78
2021/03/31 04:49:35;;;;;;;18.83;6.03;;;7.70;90.30;;;;;;4999785;28;20954;-78
2021/03/31 04:52:01;;;;;;;15.32;6.40;;;7.70;90.10;;;;;;5000896;28;20035;-77
2021/03/31 04:54:27;;;;;;;13.25;6.32;;;7.70;90.10;;;;;;4999227;28;20121;-76
2021/03/31 04:56:52;;;;;;;13.40;5.53;;;7.70;90.40;;;;;;4995205;28;20034;-78
2021/03/31 04:59:18;;;;;;;20.98;5.88;;;7.60;90.30;;;;;;4992642;28;20065;-78
2021/03/31 05:01:43;;;;;;;17.02;6.35;;;7.60;90.30;;;;;;4995799;28;20524;-79
2021/03/31 05:04:09;;;;;;;31.38;6.05;;;7.60;90.30;;;;;;5000788;28;20705;-77
2021/03/31 05:06:34;;;;;;;14.43;5.45;;;7.70;90.50;;;;;;4995945;28;20046;-78
2021/03/31 05:09:00;;;;;;;25.25;6.30;;;7.60;90.80;;;;;;4991927;28;20036;-76
2021/03/31 05:11:27;;;;;;;18.50;6.38;;;7.70;90.60;;;;;;4993598;28;20030;-76
2021/03/31 05:13:52;;;;;;;18.27;5.90;;;7.70;90.60;;;;;;4994829;28;20121;-78
2021/03/31 05:16:18;;;;;;;15.23;5.30;;;7.70;90.80;;;;;;5000111;28;20152;-77
2021/03/31 05:18:43;;;;;;;19.33;6.00;;;7.70;90.50;;;;;;4998804;28;20037;-77
2021/03/31 05:21:09;;;;;;;17.63;5.65;;;7.80;90.50;;;;;;5002189;28;20291;-78
2021/03/31 05:23:34;;;;;;;35.38;6.05;;;7.90;90.30;;;;;;5011700;28;20104;-78
2021/03/31 05:26:00;;;;;;;20.55;6.25;;;7.80;90.20;;;;;;4997307;28;20520;-76
2021/03/31 05:28:25;;;;;;;26.83;6.50;;;7.80;90.20;;;;;;4997395;28;20791;-74
2021/03/31 05:30:52;;;;;;;12.45;6.00;;;7.80;90.20;;;;;;4985926;28;20142;-75
2021/03/31 05:33:17;;;;;;;15.13;5.93;;;7.90;90.20;;;;;;4993469;28;20058;-76
2021/03/31 05:35:43;;;;;;;21.75;6.53;;;7.90;90.10;;;;;;4993577;28;20038;-75
2021/03/31 05:38:08;;;;;;;18.85;6.38;;;7.90;90.40;;;;;;4994432;28;20467;-76
2021/03/31 05:40:34;;;;;;;20.55;6.25;;;7.90;90.10;;;;;;4994650;28;20045;-74
2021/03/31 05:43:00;;;;;;;19.92;7.30;;;7.90;90.30;;;;;;4989084;28;20042;-74
2021/03/31 05:45:28;;;;;;;19.10;5.80;;;8.00;90.30;;;;;;4992451;28;20129;-76
2021/03/31 05:47:54;;;;;;;14.93;5.97;;;8.00;90.20;;;;;;4990725;28;20034;-76
2021/03/31 05:50:20;;;;;;;17.90;6.25;;;8.10;90.20;;;;;;4992929;28;20042;-76
2021/03/31 05:52:46;;;;;;;22.92;6.05;;;8.10;90.00;;;;;;4990627;28;20049;-76
2021/03/31 05:55:14;;;;;;;23.30;6.63;;;8.20;89.70;;;;;;4990503;28;20568;-75
2021/03/31 05:57:40;;;;;;;29.67;7.35;;;8.30;89.20;;;;;;4990089;28;20104;-78
2021/03/31 06:00:15;;;;;;;23.52;7.43;;;8.30;89.50;;;;;;4996417;28;20048;-78
2021/03/31 06:02:42;;;;;;;18.10;6.80;;;8.40;89.50;;;;;;4998060;28;20054;-80
2021/03/31 06:05:09;;;;;;;22.10;7.80;;;8.40;89.30;;;;;;4996320;28;20038;-78
2021/03/31 06:07:35;;;;;;;21.67;7.38;;;8.60;88.50;;;;;;4995748;28;20030;-79
2021/03/31 06:10:16;;;;;;;28.75;8.70;;;8.60;88.40;;;;;;4998966;28;20502;-79
2021/03/31 06:13:01;;;;;;;20.23;7.22;;;8.70;88.50;;;;;;4989776;28;20552;-82
2021/03/31 06:15:39;;;;;;;25.70;7.50;;;8.80;88.70;;;;;;4992440;28;20042;-81
2021/03/31 06:18:08;;;;;;;34.40;7.82;;;8.90;86.30;;;;;;4995295;28;20035;-80
2021/03/31 06:20:41;;;;;;;24.20;8.43;;;9.10;85.50;;;;;;4995256;28;20096;-82
2021/03/31 06:23:25;;;;;;;34.95;8.75;;;9.20;82.90;;;;;;4980834;28;20042;-80
2021/03/31 06:25:57;;;;;;;38.40;8.55;;;9.40;82.40;;;;;;4994071;28;20965;-83
2021/03/31 06:28:31;;;;;;;32.83;7.85;;;9.70;79.90;;;;;;4995331;28;20507;-82
2021/03/31 06:31:16;;;;;;;38.90;8.65;;;9.80;79.10;;;;;;4995909;28;20034;-82
2021/03/31 06:33:44;;;;;;;29.40;9.05;;;10.10;77.60;;;;;;4994832;28;20042;-82
2021/03/31 06:36:11;;;;;;;27.02;8.90;;;10.20;77.20;;;;;;4990513;28;20279;-81
2021/03/31 06:38:46;;;;;;;43.25;9.00;;;10.30;76.40;;;;;;4994202;28;20042;-81
2021/03/31 06:41:13;;;;;;;46.42;9.18;;;10.40;75.20;;;;;;5008888;28;20044;-81
2021/03/31 06:43:51;;;;;;;29.20;9.23;;;10.50;74.90;;;;;;5003200;28;20114;-83
2021/03/31 06:46:52;;;;;;;40.20;9.25;;;10.60;74.20;;;;;;5004352;28;20085;-83
2021/03/31 06:49:17;;;;;;;30.45;9.43;;;10.60;73.80;;;;;;5005894;28;20051;-81
2021/03/31 06:51:43;;;;;;;39.83;9.18;;;10.70;73.50;;;;;;5007779;28;20034;-80
2021/03/31 06:54:18;;;;;;;25.00;9.13;;;10.80;73.60;;;;;;4999011;28;20045;-81
2021/03/31 06:56:55;;;;;;;32.85;8.40;;;10.80;73.20;;;;;;4995918;28;20047;-81
2021/03/31 06:59:30;;;;;;;27.80;8.77;;;10.90;71.90;;;;;;4990634;28;20034;-81
2021/03/31 07:01:57;;;;;;;29.42;8.65;;;10.90;72.30;;;;;;4988072;28;20034;-81
2021/03/31 07:04:24;;;;;;;24.63;8.13;;;11.00;71.10;;;;;;4990095;28;20173;-81
2021/03/31 07:07:07;;;;;;;34.78;9.27;;;11.20;70.60;;;;;;5008468;28;20038;-82
2021/03/31 07:09:37;;;;;;;30.63;8.77;;;11.40;69.90;;;;;;4991877;28;20034;-82
2021/03/31 07:12:23;;;;;;;21.83;8.13;;;11.70;69.00;;;;;;4995353;28;20026;-82
2021/03/31 07:14:50;;;;;;;22.83;8.18;;;12.00;66.10;;;;;;4989724;28;20460;-85
2021/03/31 07:17:35;;;;;;;29.27;7.45;;;12.10;64.60;;;;;;4995920;28;20096;-81
2021/03/31 07:20:01;;;;;;;28.15;9.02;;;12.20;63.60;;;;;;4995565;28;20049;-80
2021/03/31 07:22:27;;;;;;;19.40;8.02;;;12.60;62.50;;;;;;5001541;28;20034;-81
2021/03/31 07:24:54;;;;;;;22.73;8.80;;;12.80;60.90;;;;;;5001724;28;20520;-80
2021/03/31 07:27:23;;;;;;;22.15;8.32;;;13.30;58.60;;;;;;4989743;28;20089;-84
2021/03/31 07:30:06;;;;;;;31.73;8.65;;;14.00;55.20;;;;;;4992043;28;20042;-82
2021/03/31 07:32:41;;;;;;;23.42;9.23;;;14.30;52.30;;;;;;4996023;28;20046;-82
2021/03/31 07:35:08;;;;;;;32.13;8.98;;;14.50;49.10;;;;;;4989368;28;20026;-82
2021/03/31 07:37:34;;;;;;;26.98;9.18;;;14.60;47.80;;;;;;4991095;28;20038;-82
2021/03/31 07:40:03;;;;;;;19.80;9.13;;;14.40;46.10;;;;;;4997761;28;20114;-82
2021/03/31 07:42:29;;;;;;;21.45;8.65;;;14.20;46.70;;;;;;4992392;28;20569;-82
2021/03/31 07:44:58;;;;;;;30.77;9.48;;;14.10;47.00;;;;;;5004197;28;20041;-82
2021/03/31 07:47:25;;;;;;;28.17;9.00;;;14.10;47.50;;;;;;4992316;28;20042;-82
2021/03/31 07:49:51;;;;;;;34.50;9.93;;;14.50;47.30;;;;;;4990667;28;20046;-82
2021/03/31 07:52:17;;;;;;;27.35;8.88;;;15.00;46.60;;;;;;4993119;28;20040;-82
2021/03/31 07:54:42;;;;;;;32.20;9.07;;;15.30;45.10;;;;;;4998152;28;20034;-83
2021/03/31 07:57:24;;;;;;;37.95;10.10;;;15.80;44.10;;;;;;4990669;28;20061;-81
2021/03/31 07:59:49;;;;;;;31.30;9.38;;;16.10;41.60;;;;;;4991417;28;20030;-82
2021/03/31 08:02:16;;;;;;;28.10;9.30;;;16.30;40.20;;;;;;4992271;28;20030;-82
2021/03/31 08:04:41;;;;;;;25.90;9.43;;;16.90;37.50;;;;;;5000916;28;20072;-81
2021/03/31 08:07:21;;;;;;;27.25;8.23;;;17.20;36.50;;;;;;4992113;28;20034;-81
2021/03/31 08:09:47;;;;;;;33.47;8.90;;;17.30;35.00;;;;;;4994786;28;20078;-82
2021/03/31 08:12:31;;;;;;;27.75;9.60;;;17.60;35.00;;;;;;4992963;28;20085;-83
2021/03/31 08:14:57;;;;;;;37.63;10.43;;;17.40;35.40;;;;;;4995740;28;20670;-87
2021/03/31 08:17:23;;;;;;;27.50;9.55;;;17.30;35.40;;;;;;5002110;28;20054;-83
2021/03/31 08:19:52;;;;;;;27.33;9.35;;;17.30;35.50;;;;;;4994235;28;20036;-81
2021/03/31 08:22:19;;;;;;;40.65;10.15;;;17.00;35.30;;;;;;4997099;28;20034;-81
2021/03/31 08:24:51;;;;;;;21.88;9.73;;;17.00;35.40;;;;;;4997307;28;20030;-81
2021/03/31 08:27:17;;;;;;;36.25;8.82;;;16.90;36.10;;;;;;4996082;28;20045;-81
2021/03/31 08:29:44;;;;;;;38.03;10.30;;;16.90;36.60;;;;;;5002077;28;20035;-78
2021/03/31 08:32:11;;;;;;;36.72;9.18;;;17.00;36.20;;;;;;4995421;28;20181;-81
2021/03/31 08:34:37;;;;;;;32.03;9.02;;;17.20;35.30;;;;;;5004050;28;20514;-78
2021/03/31 08:37:17;;;;;;;27.83;9.88;;;17.50;34.20;;;;;;4991028;28;20041;-78
2021/03/31 08:39:42;;;;;;;31.77;9.07;;;17.80;34.90;;;;;;4993218;28;20142;-81
2021/03/31 08:42:08;;;;;;;25.38;8.63;;;18.40;32.70;;;;;;4994778;28;20114;-81
2021/03/31 08:44:36;;;;;;;32.42;9.43;;;18.70;32.00;;;;;;4990325;28;20057;-80
2021/03/31 08:47:15;;;;;;;36.50;10.07;;;18.70;30.60;;;;;;4993730;28;20064;-80
2021/03/31 08:49:42;;;;;;;28.55;9.23;;;19.00;31.00;;;;;;4992848;28;20069;-79
2021/03/31 08:52:10;;;;;;;38.95;9.75;;;19.20;29.90;;;;;;4997466;28;20030;-79
2021/03/31 08:54:48;;;;;;;37.33;9.25;;;19.10;30.00;;;;;;4997794;28;20194;-79
2021/03/31 08:57:22;;;;;;;24.83;9.43;;;19.50;30.00;;;;;;5011178;28;20053;-79
2021/03/31 08:59:57;;;;;;;31.15;10.02;;;20.10;27.90;;;;;;5000337;28;20119;-79
2021/03/31 09:02:25;;;;;;;31.58;10.68;;;20.40;26.80;;;;;;4996090;28;20044;-79
2021/03/31 09:04:51;;;;;;;33.25;8.95;;;20.70;26.60;;;;;;5002337;28;20440;-80
2021/03/31 09:07:17;;;;;;;27.15;8.93;;;21.20;26.40;;;;;;4993513;28;20038;-80
2021/03/31 09:09:44;;;;;;;26.27;9.93;;;21.20;25.90;;;;;;5004630;28;20042;-81
2021/03/31 09:12:13;;;;;;;31.33;9.13;;;21.50;25.30;;;;;;4995312;28;20589;-80
2021/03/31 09:14:44;;;;;;;25.75;9.05;;;21.80;25.50;;;;;;4993938;28;20039;-81
2021/03/31 09:17:17;;;;;;;23.25;8.38;;;23.30;24.00;;;;;;4990291;28;20375;-80
2021/03/31 09:19:44;;;;;;;33.07;8.67;;;23.90;22.30;;;;;;5003866;28;20030;-80
2021/03/31 09:22:16;;;;;;;32.30;10.07;;;24.10;21.10;;;;;;4992776;28;20314;-81
2021/03/31 09:24:44;;;;;;;28.70;8.70;;;25.40;20.50;;;;;;5010988;28;20034;-81
2021/03/31 09:27:13;;;;;;;31.13;9.77;;;26.00;19.00;;;;;;4994997;28;20044;-81
2021/03/31 09:29:46;;;;;;;23.88;10.93;;;25.90;17.70;;;;;;4996542;28;20038;-81
2021/03/31 09:32:21;;;;;;;28.47;9.37;;;26.00;18.00;;;;;;5008044;28;20165;-82
2021/03/31 09:34:46;;;;;;;22.95;9.32;;;25.90;17.70;;;;;;4993476;28;20588;-79
2021/03/31 09:37:14;;;;;;;26.90;10.10;;;25.60;17.00;;;;;;4991692;28;20035;-79
2021/03/31 09:39:44;;;;;;;47.67;10.20;;;25.80;16.30;;;;;;5004131;28;20093;-80
2021/03/31 09:42:29;;;;;;;32.53;10.05;;;26.80;16.10;;;;;;4997711;28;20049;-81
2021/03/31 09:44:55;;;;;;;33.67;10.00;;;26.70;14.80;;;;;;4991916;28;20038;-80
2021/03/31 09:47:22;;;;;;;36.40;13.23;;;26.10;15.10;;;;;;5001813;28;20042;-80
2021/03/31 09:49:49;;;;;;;25.67;10.77;;;26.50;15.70;;;;;;4991827;28;20038;-80
2021/03/31 09:52:15;;;;;;;18.13;9.98;;;26.50;16.00;;;;;;4997149;28;20387;-80
2021/03/31 09:54:47;;;;;;;27.55;10.55;;;27.00;14.90;;;;;;4995943;28;20049;-80
2021/03/31 09:57:15;;;;;;;33.05;10.57;;;27.00;14.00;;;;;;5005802;28;20045;-80
2021/03/31 09:59:42;;;;;;;26.65;11.07;;;27.90;14.30;;;;;;4995806;28;20038;-80
2021/03/31 10:02:09;;;;;;;25.25;9.93;;;27.70;12.90;;;;;;4993699;28;20501;-80
2021/03/31 10:04:38;;;;;;;31.98;10.15;;;27.70;14.20;;;;;;4992491;28;20457;-80
2021/03/31 10:07:18;;;;;;;38.75;11.00;;;27.80;14.10;;;;;;5004195;28;20508;-80
2021/03/31 10:09:47;;;;;;;33.15;11.75;;;27.80;12.80;;;;;;4994935;28;20038;-80
2021/03/31 10:12:30;;;;;;;28.35;10.55;;;28.40;12.40;;;;;;4994560;28;20034;-80
2021/03/31 10:14:57;;;;;;;27.95;10.68;;;27.50;12.40;;;;;;5001072;28;20045;-80
2021/03/31 10:17:25;;;;;;;34.10;11.38;;;27.90;12.50;;;;;;5000727;28;20038;-80
2021/03/31 10:19:51;;;;;;;28.05;10.95;;;28.30;12.60;;;;;;5004454;28;20033;-80
2021/03/31 10:22:18;;;;;;;29.15;9.25;;;28.80;12.60;;;;;;5002432;28;20062;-80
2021/03/31 10:24:49;;;;;;;27.65;10.63;;;28.40;12.20;;;;;;5005287;28;20039;-80
2021/03/31 10:27:17;;;;;;;29.77;9.80;;;27.90;12.50;;;;;;5000985;28;20094;-80
2021/03/31 10:29:51;;;;;;;18.25;9.93;;;28.80;12.40;;;;;;5006592;28;20125;-80
2021/03/31 10:32:19;;;;;;;21.17;9.27;;;28.80;12.60;;;;;;5008949;28;20037;-80
2021/03/31 10:34:47;;;;;;;40.38;9.85;;;29.30;12.30;;;;;;5014398;28;20041;-80
2021/03/31 10:37:18;;;;;;;23.95;10.13;;;29.20;11.90;;;;;;5005188;28;20031;-79
2021/03/31 10:46:49;;;;;;;33.08;9.45;;;29.80;11.70;;;;;;5003306;28;20049;-80
2021/03/31 10:56:30;;;;;;;20.80;9.02;;;31.00;10.70;;;;;;4994992;28;20069;-80
2021/03/31 10:58:55;;;;;;;23.75;10.45;;;31.40;10.00;;;;;;4993373;28;20455;-80
2021/03/31 11:01:21;;;;;;;27.85;9.65;;;31.20;8.50;;;;;;4997008;28;20049;-80
2021/03/31 11:03:46;;;;;;;28.50;11.15;;;31.30;8.40;;;;;;4997213;28;20031;-80
2021/03/31 11:06:12;;;;;;;23.30;9.25;;;31.70;8.20;;;;;;4993821;28;20056;-79
2021/03/31 11:08:37;;;;;;;22.65;10.45;;;31.10;7.60;;;;;;5005626;28;20069;-80
2021/03/31 11:11:05;;;;;;;17.05;9.40;;;31.90;6.90;;;;;;4997149;28;20045;-81
2021/03/31 11:13:31;;;;;;;21.98;9.20;;;31.10;6.00;;;;;;4995754;28;20038;-80
2021/03/31 11:15:57;;;;;;;20.15;9.30;;;31.60;6.50;;;;;;4996395;28;20045;-80
2021/03/31 11:21:33;;;;;;;22.20;9.45;;;31.50;6.90;;;;;;4995717;28;20041;-80
2021/03/31 11:26:36;;;;;;;24.75;9.48;;;32.30;6.30;;;;;;4998696;28;20065;-80
2021/03/31 11:29:02;;;;;;;16.08;9.10;;;32.40;6.30;;;;;;4996065;28;20042;-80
2021/03/31 11:31:28;;;;;;;20.95;9.75;;;33.10;5.40;;;;;;4997089;28;20026;-80
2021/03/31 11:33:53;;;;;;;22.35;9.75;;;32.90;5.50;;;;;;4999507;28;20129;-80
2021/03/31 11:36:19;;;;;;;19.02;10.43;;;33.10;4.60;;;;;;5003229;28;20053;-80
2021/03/31 11:38:45;;;;;;;25.75;9.82;;;34.20;4.90;;;;;;5003820;28;20045;-80
2021/03/31 11:41:11;;;;;;;24.42;10.30;;;33.40;4.70;;;;;;4999998;28;20437;-80
2021/03/31 11:43:37;;;;;;;19.98;9.90;;;32.50;4.40;;;;;;5004655;28;20053;-80
2021/03/31 11:46:03;;;;;;;17.98;9.18;;;33.30;4.90;;;;;;4994199;28;20034;-80
2021/03/31 11:48:29;;;;;;;21.30;9.82;;;32.80;4.80;;;;;;5001901;28;20077;-80
2021/03/31 11:50:54;;;;;;;20.55;10.45;;;34.00;4.60;;;;;;4996127;28;20041;-80
2021/03/31 11:53:20;;;;;;;18.23;11.05;;;33.70;3.80;;;;;;4994618;28;20037;-80
2021/03/31 11:55:46;;;;;;;25.50;10.90;;;32.30;4.00;;;;;;4995433;28;20506;-80
2021/03/31 11:58:11;;;;;;;23.77;10.48;;;32.30;6.00;;;;;;4993881;28;20127;-80
2021/03/31 12:00:37;;;;;;;26.98;10.70;;;32.50;5.60;;;;;;5003689;28;20043;-80
2021/03/31 12:03:04;;;;;;;30.13;9.82;;;32.70;5.30;;;;;;4996978;28;20041;-80
2021/03/31 12:05:30;;;;;;;15.93;8.80;;;32.70;5.40;;;;;;4996514;28;20452;-80
2021/03/31 12:07:56;;;;;;;20.88;10.43;;;32.70;5.60;;;;;;4994988;28;20515;-80
2021/03/31 12:10:22;;;;;;;29.35;10.18;;;32.10;5.30;;;;;;4998069;28;20121;-80
2021/03/31 12:12:47;;;;;;;24.20;11.05;;;32.70;5.50;;;;;;4997235;28;20128;-80
2021/03/31 12:15:14;;;;;;;26.15;10.23;;;33.20;4.90;;;;;;4997416;28;20030;-79
2021/03/31 12:17:40;;;;;;;21.02;10.65;;;33.70;4.60;;;;;;4993992;28;20488;-79
2021/03/31 12:20:09;;;;;;;21.38;10.68;;;32.90;4.30;;;;;;4996056;28;20034;-80
2021/03/31 12:22:35;;;;;;;21.52;11.23;;;33.20;4.00;;;;;;5003363;28;20577;-80
2021/03/31 12:25:01;;;;;;;20.55;11.43;;;33.00;4.40;;;;;;4995049;28;20049;-79
2021/03/31 12:27:29;;;;;;;28.70;11.95;;;32.70;3.70;;;;;;4996321;28;20042;-79
2021/03/31 12:29:55;;;;;;;23.85;11.82;;;29.80;5.10;;;;;;4997213;28;20030;-80
2021/03/31 12:32:21;;;;;;;26.55;12.40;;;31.30;5.80;;;;;;5002349;28;20080;-80
2021/03/31 12:34:46;;;;;;;26.40;11.77;;;30.80;5.50;;;;;;4997289;28;20690;-80
2021/03/31 12:37:12;;;;;;;22.90;12.07;;;31.80;5.00;;;;;;4995602;28;20033;-79
2021/03/31 12:39:39;;;;;;;20.92;12.00;;;32.20;4.70;;;;;;5002556;28;20096;-80
2021/03/31 12:42:05;;;;;;;31.25;13.30;;;33.20;4.80;;;;;;4995219;28;20104;-79
2021/03/31 12:44:30;;;;;;;31.90;11.98;;;32.80;4.50;;;;;;4997616;28;20557;-80
2021/03/31 12:46:56;;;;;;;24.27;11.75;;;31.20;4.20;;;;;;4995276;28;20045;-79
2021/03/31 12:49:22;;;;;;;25.70;10.80;;;31.50;5.30;;;;;;4995068;28;21499;-80
2021/03/31 12:51:52;;;;;;;25.15;11.25;;;32.00;5.10;;;;;;4996710;28;20037;-79
2021/03/31 12:54:41;;;;;;;23.13;11.07;;;32.20;4.60;;;;;;4999621;28;20048;-80
2021/03/31 12:57:06;;;;;;;23.25;12.25;;;32.20;4.50;;;;;;5000744;28;20065;-80
2021/03/31 12:59:33;;;;;;;19.92;11.27;;;31.80;4.70;;;;;;5000773;28;20038;-79
2021/03/31 13:01:58;;;;;;;21.98;10.05;;;31.30;4.90;;;;;;5001783;28;20040;-80
2021/03/31 13:04:24;;;;;;;20.35;11.15;;;32.60;5.60;;;;;;5001307;28;20053;-79
2021/03/31 13:06:50;;;;;;;25.05;11.23;;;32.20;4.50;;;;;;4996440;28;20434;-79